Accueil
METAR-TAF:

METAR-TAF

Aéroports :

Aérodrome de Samedan-Engadin

Saint-Moritz, Suisse

latitude: 46-32-03N, longitude: 9-53-03E, altitude: 1707 m

Observation

Le bulletin a été fait il y a 18 minutes, à 15:50 UTC
Vent 8 kt de sud
Température 11°C
Humidité 40%
Pression 1028 hPa
Visibilité 10 km ou plus
Nuages fragmentés à une hauteur de 5000 ft

METAR: LSZS 191550Z 17008KT 9999 BKN050 11/M02 Q1028 RMK V TL170

Heure: 18:08 (16:08 UTC)

Prévision

Le bulletin a été fait il y a 1 heure et 43 minutes, à 14:25 UTC
Prévision valable du 19 à 15 UTC au 19 à 24 UTC
Vent 7 kt de sud
Visibilité 10 km ou plus
Nuages épars à une hauteur de 5500 ft
Evoluant progressivement
du 19 à 18 UTC au 19 à 21 UTC
Visibilité 10 km ou plus
pas de nuages en-dessous de 1500 mètres et pas de cumulonimbus.

TAF: LSZS 191425Z 1915/1924 18007KT 9999 SCT055 TX13/1915Z BECMG 1918/1921 CAVOK

Observations et prévisions météorologiques de plus de 4000 aéroports (messages METAR et TAF).

Les stations disponibles sont représentées par des disques jaunes et rouges sur la carte.

Passer la souris dessus pour voir le nom de la station.

Cliquer dessus pour voir les observations et prévisions météorologiques.

Pour changer de carte: cliquez sur les boutons verts avec une croix noire pour zoomer, sur le bouton vert avec un tiret pour effectuer un zoom arrière, ou sur les flèches vertes pour les cartes adjacentes.


METAR-TAF: